Time;durP1;ratioP1;P1;durP2;ratioP2;P2;SDS_P1;SDS_P2;PMS_P1;PMS_P2;Temp;Humidity;BMP_temperature;BMP_pressure;BME280_temperature;BME280_humidity;BME280_pressure;Samples;Min_cycle;Max_cycle;Signal;HPM_P1;HPM_P2
2023/11/09 00:00:59;;;;;;;12.15;6.50;;;;;;;-0.16;nan;95591.78;2042168;29;20400;-53
2023/11/09 00:02:01;;;;;;;13.25;7.30;;;;;;;-0.19;nan;95591.81;2042174;29;20043;-52
2023/11/09 00:03:03;;;;;;;10.85;6.07;;;;;;;-0.26;nan;95596.16;2041808;29;20060;-52
2023/11/09 00:04:04;;;;;;;13.30;7.07;;;;;;;-0.25;nan;95590.16;2042034;29;20048;-53
2023/11/09 00:05:05;;;;;;;11.13;6.50;;;;;;;-0.23;nan;95587.63;2041455;29;20435;-52
2023/11/09 00:06:07;;;;;;;10.00;6.43;;;;;;;-0.29;nan;95591.09;2041923;29;20036;-52
2023/11/09 00:07:08;;;;;;;11.00;6.65;;;;;;;-0.32;nan;95592.81;2042066;29;20047;-52
2023/11/09 00:08:10;;;;;;;11.05;6.43;;;;;;;-0.39;nan;95588.66;2041825;29;20067;-53
2023/11/09 00:09:11;;;;;;;11.57;7.13;;;;;;;-0.35;nan;95580.94;2041981;29;20055;-52
2023/11/09 00:10:12;;;;;;;11.88;7.18;;;;;;;-0.36;nan;95581.81;2041878;29;20059;-54
2023/11/09 00:11:14;;;;;;;13.10;6.57;;;;;;;-0.40;nan;95579.28;2042150;29;20055;-53
2023/11/09 00:12:15;;;;;;;9.60;6.38;;;;;;;-0.44;nan;95581.03;2041866;29;20427;-53
2023/11/09 00:13:18;;;;;;;11.00;6.30;;;;;;;-0.38;nan;95578.41;2041481;29;20412;-53
2023/11/09 00:14:19;;;;;;;11.07;6.30;;;;;;;-0.38;nan;95582.69;2033699;29;20052;-53
2023/11/09 00:15:20;;;;;;;12.65;6.50;;;;;;;-0.35;nan;95577.53;2032271;29;20056;-53
2023/11/09 00:16:21;;;;;;;13.00;6.07;;;;;;;-0.33;nan;95573.28;2041229;29;20063;-52
2023/11/09 00:17:22;;;;;;;12.90;6.35;;;;;;;-0.39;nan;95576.72;2041699;29;20051;-53
2023/11/09 00:18:23;;;;;;;11.75;6.00;;;;;;;-0.51;nan;95579.41;2041857;29;20050;-53
2023/11/09 00:19:24;;;;;;;9.63;5.65;;;;;;;-0.56;nan;95579.47;2041938;29;20063;-52
2023/11/09 00:20:27;;;;;;;12.70;6.30;;;;;;;-0.52;nan;95577.72;2041886;29;20419;-53
2023/11/09 00:21:28;;;;;;;10.07;5.57;;;;;;;-0.45;nan;95571.72;2041217;29;20503;-52
2023/11/09 00:22:29;;;;;;;10.15;5.93;;;;;;;-0.38;nan;95575.84;2041707;29;20056;-53
2023/11/09 00:23:31;;;;;;;10.70;6.32;;;;;;;-0.40;nan;95571.63;2041897;29;20051;-52
2023/11/09 00:24:32;;;;;;;13.75;6.15;;;;;;;-0.43;nan;95566.56;2041883;29;20062;-53
2023/11/09 00:25:33;;;;;;;10.82;6.50;;;;;;;-0.47;nan;95570.88;2041889;29;20047;-52
2023/11/09 00:26:34;;;;;;;11.15;6.20;;;;;;;-0.46;nan;95573.41;2041658;29;20056;-53
2023/11/09 00:27:35;;;;;;;12.18;6.45;;;;;;;-0.46;nan;95568.28;2041788;29;20043;-53
2023/11/09 00:28:36;;;;;;;9.52;5.75;;;;;;;-0.51;nan;95579.41;2041672;29;20058;-52
2023/11/09 00:29:39;;;;;;;9.25;6.03;;;;;;;-0.49;nan;95577.69;2033605;29;20059;-52
2023/11/09 00:30:40;;;;;;;11.57;6.05;;;;;;;-0.48;nan;95571.75;2025809;29;20052;-52
2023/11/09 00:31:42;;;;;;;10.40;6.10;;;;;;;-0.51;nan;95577.72;2033544;29;20169;-53
2023/11/09 00:32:43;;;;;;;9.05;5.88;;;;;;;-0.53;nan;95578.59;2041930;29;20040;-52
2023/11/09 00:33:44;;;;;;;10.20;6.13;;;;;;;-0.52;nan;95580.28;2041794;29;20055;-53
2023/11/09 00:34:46;;;;;;;9.60;5.13;;;;;;;-0.55;nan;95580.31;2041650;29;20050;-53
2023/11/09 00:35:48;;;;;;;10.90;5.18;;;;;;;-0.55;nan;95580.31;2041618;29;20051;-53
2023/11/09 00:36:49;;;;;;;9.13;5.25;;;;;;;-0.48;nan;95579.41;2032698;29;20416;-52
2023/11/09 00:37:50;;;;;;;10.52;5.78;;;;;;;-0.47;nan;95570.88;2033477;29;20044;-53
2023/11/09 00:38:51;;;;;;;8.48;5.30;;;;;;;-0.43;nan;95580.16;2041004;29;20072;-52
2023/11/09 00:39:54;;;;;;;9.48;5.55;;;;;;;-0.42;nan;95579.31;2033329;29;20060;-53
2023/11/09 00:40:55;;;;;;;8.90;4.90;;;;;;;-0.42;nan;95575.94;2033678;29;20048;-53
2023/11/09 00:41:56;;;;;;;10.80;5.50;;;;;;;-0.39;nan;95574.19;2033379;29;20067;-52
2023/11/09 00:42:57;;;;;;;9.02;5.45;;;;;;;-0.48;nan;95569.19;2033214;29;20055;-53
2023/11/09 00:43:58;;;;;;;8.10;4.85;;;;;;;-0.50;nan;95568.38;2025626;29;20424;-52
2023/11/09 00:45:00;;;;;;;10.57;5.50;;;;;;;-0.56;nan;95570.97;2033230;29;20047;-52
2023/11/09 00:46:01;;;;;;;8.93;4.53;;;;;;;-0.49;nan;95568.31;2041720;29;20048;-52
2023/11/09 00:47:03;;;;;;;11.63;4.80;;;;;;;-0.49;nan;95572.59;2041688;29;20052;-52
2023/11/09 00:48:05;;;;;;;10.23;4.53;;;;;;;-0.41;nan;95570.78;2041321;29;20056;-52
2023/11/09 00:49:07;;;;;;;10.60;4.75;;;;;;;-0.47;nan;95569.16;2041838;29;20044;-52
2023/11/09 00:50:08;;;;;;;11.15;5.50;;;;;;;-0.45;nan;95570.00;2041649;29;20058;-53
2023/11/09 00:51:09;;;;;;;10.38;5.38;;;;;;;-0.37;nan;95566.53;2041472;29;20118;-53
2023/11/09 00:52:11;;;;;;;10.63;5.00;;;;;;;-0.32;nan;95569.84;2041690;29;20059;-53
2023/11/09 00:53:12;;;;;;;7.40;4.18;;;;;;;-0.36;nan;95565.66;2040784;29;20059;-52
2023/11/09 00:54:14;;;;;;;7.82;4.35;;;;;;;-0.29;nan;95564.72;2033278;29;20056;-53
2023/11/09 00:55:15;;;;;;;8.65;5.05;;;;;;;-0.33;nan;95558.78;2033326;29;20130;-52
2023/11/09 00:56:16;;;;;;;10.27;5.03;;;;;;;-0.40;nan;95575.06;2041348;29;20060;-53
2023/11/09 00:57:20;;;;;;;11.77;5.32;;;;;;;-0.49;nan;95559.84;2041812;29;20048;-53
2023/11/09 00:58:23;;;;;;;7.95;4.60;;;;;;;-0.47;nan;95560.66;2040790;29;20385;-53
2023/11/09 00:59:24;;;;;;;10.98;4.53;;;;;;;-0.43;nan;95551.28;2033195;29;20052;-52
2023/11/09 01:00:27;;;;;;;7.30;4.53;;;;;;;-0.39;nan;95561.44;2033203;29;20048;-52
2023/11/09 01:01:28;;;;;;;9.43;5.10;;;;;;;-0.48;nan;95561.53;2041246;29;20047;-52
2023/11/09 01:02:38;;;;;;;10.43;5.05;;;;;;;-0.54;nan;95567.53;2041431;29;20059;-53
2023/11/09 01:03:39;;;;;;;8.23;4.55;;;;;;;-0.60;nan;95561.66;2041912;29;20105;-52
2023/11/09 01:04:40;;;;;;;9.88;5.40;;;;;;;-0.74;nan;95565.22;2041616;29;20055;-52
2023/11/09 01:05:41;;;;;;;8.80;5.25;;;;;;;-0.77;nan;95561.84;2041582;29;20452;-53
2023/11/09 01:06:42;;;;;;;9.43;5.15;;;;;;;-0.85;nan;95564.47;2041723;29;20047;-53
2023/11/09 01:07:44;;;;;;;7.82;4.88;;;;;;;-0.85;nan;95563.63;2041453;29;20055;-54
2023/11/09 01:08:45;;;;;;;8.27;5.32;;;;;;;-0.90;nan;95567.06;2041568;29;20043;-52
2023/11/09 01:09:46;;;;;;;9.32;5.05;;;;;;;-0.86;nan;95562.75;2041642;29;20044;-53
2023/11/09 01:10:48;;;;;;;10.80;6.15;;;;;;;-0.91;nan;95564.50;2032860;29;20052;-53
2023/11/09 01:11:49;;;;;;;11.07;5.53;;;;;;;-0.91;nan;95556.88;2033468;29;20424;-53
2023/11/09 01:12:50;;;;;;;11.30;5.82;;;;;;;-0.85;nan;95564.47;2041629;29;20051;-53
2023/11/09 01:13:54;;;;;;;8.90;4.85;;;;;;;-0.90;nan;95561.13;2041651;29;20062;-52
2023/11/09 01:14:55;;;;;;;9.00;5.38;;;;;;;-0.93;nan;95561.16;2041246;29;20047;-53
2023/11/09 01:15:57;;;;;;;10.35;6.07;;;;;;;-0.84;nan;95560.22;2040551;29;20062;-53
2023/11/09 01:16:58;;;;;;;10.38;6.05;;;;;;;-0.93;nan;95558.59;2041757;29;20059;-53
2023/11/09 01:18:00;;;;;;;8.45;5.40;;;;;;;-0.94;nan;95556.91;2041527;29;20067;-54
2023/11/09 01:19:02;;;;;;;10.38;5.65;;;;;;;-1.08;nan;95557.03;2033266;29;20051;-53
2023/11/09 01:20:05;;;;;;;10.48;6.00;;;;;;;-1.20;nan;95558.00;2033346;29;20420;-52
2023/11/09 01:21:06;;;;;;;9.40;5.78;;;;;;;-1.21;nan;95560.53;2033318;29;20051;-52
2023/11/09 01:22:07;;;;;;;9.68;5.70;;;;;;;-1.17;nan;95557.97;2033111;29;20048;-53
2023/11/09 01:23:09;;;;;;;9.68;5.13;;;;;;;-1.19;nan;95556.28;2041695;29;20059;-53
2023/11/09 01:24:10;;;;;;;10.80;5.18;;;;;;;-1.21;nan;95551.19;2032805;29;20059;-53
2023/11/09 01:25:11;;;;;;;8.48;5.22;;;;;;;-1.17;nan;95546.94;2033408;29;20070;-53
2023/11/09 01:26:13;;;;;;;9.20;4.93;;;;;;;-1.07;nan;95551.06;2041538;29;20051;-52
2023/11/09 01:27:14;;;;;;;9.13;4.97;;;;;;;-1.05;nan;95551.06;2042757;29;20055;-52
2023/11/09 01:28:15;;;;;;;7.40;4.28;;;;;;;-0.94;nan;95539.06;2042901;29;20078;-53
2023/11/09 01:29:18;;;;;;;8.55;4.15;;;;;;;-0.86;nan;95542.38;2042871;29;20063;-53
2023/11/09 01:30:20;;;;;;;7.95;4.47;;;;;;;-0.63;nan;95536.19;2043161;29;20487;-52
2023/11/09 01:31:21;;;;;;;9.73;4.78;;;;;;;-0.57;nan;95547.16;2043104;29;20047;-53
2023/11/09 01:32:22;;;;;;;7.07;4.03;;;;;;;-0.58;nan;95542.09;2042992;29;20071;-52
2023/11/09 01:33:23;;;;;;;9.43;4.57;;;;;;;-0.64;nan;95537.91;2043009;29;20059;-53
2023/11/09 01:34:25;;;;;;;6.53;3.75;;;;;;;-0.67;nan;95530.28;2042727;29;20067;-52
2023/11/09 01:35:26;;;;;;;7.50;3.97;;;;;;;-0.52;nan;95539.47;2034470;29;20056;-52
2023/11/09 01:36:28;;;;;;;6.32;3.80;;;;;;;-0.56;nan;95531.03;2034661;29;20155;-52
2023/11/09 01:37:29;;;;;;;5.97;3.30;;;;;;;-0.50;nan;95530.09;2042798;29;20047;-52
2023/11/09 01:38:30;;;;;;;6.95;3.45;;;;;;;-0.37;nan;95531.66;2034731;29;20063;-53
2023/11/09 01:39:32;;;;;;;6.93;3.67;;;;;;;-0.37;nan;95529.09;2026013;29;20113;-53
2023/11/09 01:40:34;;;;;;;8.45;4.13;;;;;;;-0.38;nan;95526.56;2034883;29;20048;-53
2023/11/09 01:41:35;;;;;;;7.10;4.07;;;;;;;-0.32;nan;95529.00;2042997;29;20046;-52
2023/11/09 01:42:36;;;;;;;5.72;3.22;;;;;;;-0.31;nan;95523.06;2042607;29;20495;-53
2023/11/09 01:43:39;;;;;;;7.38;4.00;;;;;;;-0.24;nan;95529.78;2042979;29;20039;-52
2023/11/09 01:44:40;;;;;;;6.55;3.90;;;;;;;-0.27;nan;95528.13;2034479;29;20044;-53
2023/11/09 01:45:43;;;;;;;5.88;3.85;;;;;;;-0.34;nan;95521.41;2034676;29;20039;-53
2023/11/09 01:46:46;;;;;;;9.35;4.20;;;;;;;-0.36;nan;95525.66;2043152;29;20379;-52
2023/11/09 01:47:47;;;;;;;6.97;4.05;;;;;;;-0.43;nan;95528.31;2034227;29;20044;-52
2023/11/09 01:48:48;;;;;;;6.35;3.75;;;;;;;-0.47;nan;95530.06;2018809;29;20048;-53
2023/11/09 01:49:50;;;;;;;7.72;4.00;;;;;;;-0.53;nan;95525.88;2011179;29;20052;-53
2023/11/09 01:50:53;;;;;;;7.18;3.83;;;;;;;-0.51;nan;95534.38;2026680;29;20053;-52
2023/11/09 01:51:56;;;;;;;7.93;3.70;;;;;;;-0.46;nan;95531.75;2034291;29;20063;-53
2023/11/09 01:52:58;;;;;;;8.68;4.05;;;;;;;-0.53;nan;95522.50;2034675;29;20064;-52
2023/11/09 01:53:59;;;;;;;6.88;3.88;;;;;;;-0.52;nan;95521.63;2034188;29;20044;-53
2023/11/09 01:55:01;;;;;;;5.65;3.60;;;;;;;-0.52;nan;95526.72;2026277;29;20428;-53
2023/11/09 01:56:03;;;;;;;6.75;3.75;;;;;;;-0.41;nan;95522.31;2034812;29;20115;-53
2023/11/09 01:57:04;;;;;;;4.43;3.05;;;;;;;-0.46;nan;95517.28;2018229;29;20068;-52
2023/11/09 01:58:05;;;;;;;6.00;3.60;;;;;;;-0.57;nan;95516.56;2011475;29;20064;-53
2023/11/09 01:59:07;;;;;;;5.65;3.53;;;;;;;-0.46;nan;95518.97;2018780;29;20414;-53
2023/11/09 02:00:10;;;;;;;7.80;3.85;;;;;;;-0.49;nan;95511.38;2011395;29;20548;-53
2023/11/09 02:01:14;;;;;;;6.63;3.92;;;;;;;-0.58;nan;95519.97;2020582;29;20048;-52
2023/11/09 02:02:15;;;;;;;5.85;3.50;;;;;;;-0.59;nan;95518.28;2026422;29;20060;-53
2023/11/09 02:03:16;;;;;;;7.78;4.20;;;;;;;-0.65;nan;95514.97;2034084;29;20445;-52
2023/11/09 02:04:17;;;;;;;6.53;3.75;;;;;;;-0.61;nan;95516.63;2018831;29;20514;-52
2023/11/09 02:05:19;;;;;;;7.82;3.90;;;;;;;-0.66;nan;95511.56;2011096;29;20053;-52
2023/11/09 02:06:20;;;;;;;8.30;3.33;;;;;;;-0.60;nan;95513.22;2027011;29;20045;-52
2023/11/09 02:07:21;;;;;;;9.82;3.90;;;;;;;-0.52;nan;95506.31;2033929;29;20056;-52
2023/11/09 02:08:23;;;;;;;6.22;3.33;;;;;;;-0.52;nan;95506.31;2034153;29;20066;-53
2023/11/09 02:09:24;;;;;;;5.18;3.55;;;;;;;-0.51;nan;95506.31;2042378;29;20152;-52
2023/11/09 02:10:25;;;;;;;6.50;3.65;;;;;;;-0.56;nan;95509.75;2034620;29;20064;-53
2023/11/09 02:11:26;;;;;;;5.97;3.03;;;;;;;-0.56;nan;95510.63;2026738;29;20378;-53
2023/11/09 02:12:27;;;;;;;7.75;2.92;;;;;;;-0.60;nan;95503.84;2034350;29;20408;-52
2023/11/09 02:13:28;;;;;;;5.82;3.15;;;;;;;-0.51;nan;95513.09;2041705;29;20420;-52
2023/11/09 02:14:30;;;;;;;4.85;2.92;;;;;;;-0.43;nan;95510.44;2034288;29;20108;-52
2023/11/09 02:15:31;;;;;;;6.80;3.08;;;;;;;-0.35;nan;95513.75;2026418;29;20059;-52
2023/11/09 02:16:32;;;;;;;6.50;3.20;;;;;;;-0.38;nan;95506.97;2034409;29;20047;-53
2023/11/09 02:17:33;;;;;;;4.68;2.47;;;;;;;-0.39;nan;95507.84;2018519;29;20064;-52
2023/11/09 02:18:34;;;;;;;9.07;3.30;;;;;;;-0.42;nan;95509.59;2026495;29;20055;-53
2023/11/09 02:19:35;;;;;;;5.68;3.03;;;;;;;-0.39;nan;95507.00;2042719;29;20051;-53
2023/11/09 02:20:36;;;;;;;6.28;3.28;;;;;;;-0.48;nan;95508.81;2042226;29;20043;-52
2023/11/09 02:21:37;;;;;;;5.22;3.08;;;;;;;-0.50;nan;95509.69;2018791;29;20049;-52
2023/11/09 02:22:38;;;;;;;7.03;2.85;;;;;;;-0.50;nan;95510.53;2011154;29;20051;-53
2023/11/09 02:23:39;;;;;;;5.45;2.83;;;;;;;-0.49;nan;95503.72;2018806;29;20052;-52
2023/11/09 02:24:41;;;;;;;5.20;2.72;;;;;;;-0.47;nan;95504.56;2019053;29;20429;-53
2023/11/09 02:25:43;;;;;;;6.45;3.22;;;;;;;-0.43;nan;95501.09;2026406;29;20429;-53
2023/11/09 02:26:44;;;;;;;6.18;3.13;;;;;;;-0.49;nan;95498.63;2018798;29;20048;-52
2023/11/09 02:27:45;;;;;;;6.15;3.00;;;;;;;-0.48;nan;95498.63;2026395;29;20520;-52
2023/11/09 02:28:47;;;;;;;5.93;3.10;;;;;;;-0.51;nan;95502.88;2042503;29;20055;-53
2023/11/09 02:29:48;;;;;;;8.93;3.35;;;;;;;-0.60;nan;95498.75;2034376;29;20055;-53
2023/11/09 02:30:50;;;;;;;5.55;2.90;;;;;;;-0.64;nan;95488.59;2034321;29;20059;-52
2023/11/09 02:31:51;;;;;;;5.80;2.90;;;;;;;-0.64;nan;95488.59;2034014;29;20055;-52
2023/11/09 02:32:52;;;;;;;6.50;3.25;;;;;;;-0.61;nan;95491.13;2026378;29;20044;-52
2023/11/09 02:33:53;;;;;;;5.70;2.80;;;;;;;-0.63;nan;95488.59;2026292;29;20059;-54
2023/11/09 02:34:56;;;;;;;5.70;3.10;;;;;;;-0.57;nan;95485.94;2034079;29;20473;-52
2023/11/09 02:35:57;;;;;;;5.63;3.05;;;;;;;-0.49;nan;95483.31;2026242;29;20478;-52
2023/11/09 02:36:58;;;;;;;4.22;2.55;;;;;;;-0.53;nan;95482.50;2026974;29;20060;-52
2023/11/09 02:37:59;;;;;;;4.43;2.80;;;;;;;-0.53;nan;95490.16;2034015;29;20428;-53
2023/11/09 02:39:00;;;;;;;5.95;2.83;;;;;;;-0.59;nan;95480.03;2033509;29;20048;-52
2023/11/09 02:40:02;;;;;;;5.05;2.75;;;;;;;-0.65;nan;95479.25;2042281;29;20067;-53
2023/11/09 02:41:06;;;;;;;4.55;2.60;;;;;;;-0.69;nan;95478.47;2034007;29;20551;-53
2023/11/09 02:42:07;;;;;;;4.88;2.42;;;;;;;-0.65;nan;95476.72;2034495;29;20048;-54
2023/11/09 02:43:08;;;;;;;5.13;2.28;;;;;;;-0.60;nan;95477.50;2042602;29;20050;-53
2023/11/09 02:44:09;;;;;;;5.43;2.67;;;;;;;-0.55;nan;95485.94;2042734;29;20058;-52
2023/11/09 02:45:10;;;;;;;6.22;2.70;;;;;;;-0.54;nan;95469.75;2034113;29;20071;-52
2023/11/09 02:46:11;;;;;;;4.72;2.30;;;;;;;-0.52;nan;95474.00;2033678;29;20374;-52
2023/11/09 02:47:12;;;;;;;3.95;2.30;;;;;;;-0.54;nan;95462.13;2042256;29;20051;-53
2023/11/09 02:48:13;;;;;;;4.32;2.53;;;;;;;-0.53;nan;95468.94;2041866;29;20062;-52
2023/11/09 02:49:15;;;;;;;4.93;2.83;;;;;;;-0.53;nan;95469.75;2041859;29;20153;-53
2023/11/09 02:50:16;;;;;;;4.07;2.38;;;;;;;-0.59;nan;95469.81;2042392;29;20054;-52
2023/11/09 02:51:17;;;;;;;5.57;2.83;;;;;;;-0.68;nan;95469.94;2042463;29;20070;-52
2023/11/09 02:52:18;;;;;;;3.95;2.28;;;;;;;-0.58;nan;95474.06;2042423;29;20055;-52
2023/11/09 02:53:19;;;;;;;4.07;2.45;;;;;;;-0.58;nan;95473.22;2042605;29;20055;-52
2023/11/09 02:54:20;;;;;;;5.00;2.50;;;;;;;-0.60;nan;95468.13;2034270;29;20052;-53
2023/11/09 02:55:21;;;;;;;4.70;2.35;;;;;;;-0.56;nan;95464.69;2033726;29;20055;-52
2023/11/09 02:56:22;;;;;;;4.20;2.33;;;;;;;-0.50;nan;95468.88;2042124;29;20060;-53
2023/11/09 02:57:24;;;;;;;4.18;2.40;;;;;;;-0.49;nan;95468.84;2042133;29;20059;-54
2023/11/09 02:58:25;;;;;;;5.40;2.90;;;;;;;-0.51;nan;95462.94;2033889;29;20048;-53
2023/11/09 02:59:26;;;;;;;4.60;2.47;;;;;;;-0.42;nan;95469.63;2034300;29;20048;-53
2023/11/09 03:00:27;;;;;;;6.50;2.85;;;;;;;-0.40;nan;95469.59;2042301;29;20060;-53
2023/11/09 03:01:28;;;;;;;4.05;2.45;;;;;;;-0.38;nan;95458.50;2042552;29;20059;-52
2023/11/09 03:02:29;;;;;;;5.50;2.55;;;;;;;-0.44;nan;95463.69;2042431;29;20040;-53
2023/11/09 03:03:31;;;;;;;4.85;2.88;;;;;;;-0.51;nan;95456.97;2033600;29;20063;-52
2023/11/09 03:04:33;;;;;;;5.30;3.10;;;;;;;-0.59;nan;95453.69;2034342;29;20354;-52
2023/11/09 03:05:34;;;;;;;4.45;2.42;;;;;;;-0.65;nan;95453.75;2042151;29;20396;-52
2023/11/09 03:06:35;;;;;;;6.07;2.70;;;;;;;-0.52;nan;95458.69;2042003;29;20067;-54
2023/11/09 03:07:36;;;;;;;4.65;2.60;;;;;;;-0.51;nan;95457.84;2041897;29;20079;-53
2023/11/09 03:08:38;;;;;;;8.70;3.35;;;;;;;-0.52;nan;95455.28;2042133;29;20046;-52
2023/11/09 03:09:40;;;;;;;4.90;2.70;;;;;;;-0.56;nan;95457.06;2042478;29;20048;-52
2023/11/09 03:10:41;;;;;;;6.25;2.92;;;;;;;-0.58;nan;95448.56;2034172;29;20059;-52
2023/11/09 03:11:42;;;;;;;5.13;3.03;;;;;;;-0.55;nan;95450.25;2034044;29;20047;-52
2023/11/09 03:12:43;;;;;;;3.97;2.70;;;;;;;-0.53;nan;95457.00;2042435;29;20043;-53
2023/11/09 03:13:44;;;;;;;4.72;2.72;;;;;;;-0.57;nan;95451.97;2042286;29;20058;-53
2023/11/09 03:14:45;;;;;;;6.25;2.88;;;;;;;-0.55;nan;95445.13;2041838;29;20055;-53
2023/11/09 03:15:47;;;;;;;5.68;3.28;;;;;;;-0.56;nan;95451.94;2041813;29;20043;-54
2023/11/09 03:16:49;;;;;;;3.65;2.22;;;;;;;-0.58;nan;95448.56;2033719;29;20052;-53
2023/11/09 03:17:50;;;;;;;5.70;3.05;;;;;;;-0.53;nan;95438.31;2034244;29;20060;-52
2023/11/09 03:18:51;;;;;;;3.83;2.50;;;;;;;-0.53;nan;95451.06;2042129;29;20055;-52
2023/11/09 03:19:53;;;;;;;5.30;2.67;;;;;;;-0.51;nan;95441.66;2033894;29;20119;-54
2023/11/09 03:20:54;;;;;;;4.13;2.55;;;;;;;-0.54;nan;95446.81;2026055;29;20131;-52
2023/11/09 03:21:55;;;;;;;6.20;2.72;;;;;;;-0.52;nan;95440.00;2034094;29;20052;-52
2023/11/09 03:22:57;;;;;;;5.43;2.72;;;;;;;-0.51;nan;95444.22;2041794;29;20059;-54
2023/11/09 03:23:58;;;;;;;7.68;3.00;;;;;;;-0.53;nan;95443.41;2042107;29;20051;-53
2023/11/09 03:24:59;;;;;;;4.35;2.63;;;;;;;-0.53;nan;95440.88;2042207;29;20044;-52
2023/11/09 03:26:00;;;;;;;4.88;2.80;;;;;;;-0.56;nan;95436.66;2041902;29;20062;-52
2023/11/09 03:27:01;;;;;;;5.60;3.00;;;;;;;-0.58;nan;95432.44;2042246;29;20044;-53
2023/11/09 03:28:02;;;;;;;7.35;2.42;;;;;;;-0.62;nan;95433.31;2033746;29;20059;-52
2023/11/09 03:29:05;;;;;;;5.25;2.55;;;;;;;-0.64;nan;95425.69;2033138;29;20059;-52
2023/11/09 03:30:06;;;;;;;3.97;2.47;;;;;;;-0.59;nan;95431.56;2042167;29;20051;-53
2023/11/09 03:31:07;;;;;;;5.80;2.85;;;;;;;-0.63;nan;95431.63;2033373;29;20056;-52
2023/11/09 03:32:09;;;;;;;5.85;2.72;;;;;;;-0.64;nan;95424.84;2033531;29;20071;-53
2023/11/09 03:33:10;;;;;;;6.78;2.88;;;;;;;-0.61;nan;95425.66;2033850;29;20058;-52
2023/11/09 03:34:11;;;;;;;4.93;2.50;;;;;;;-0.65;nan;95426.53;2025763;29;20056;-53
2023/11/09 03:35:13;;;;;;;6.05;2.67;;;;;;;-0.71;nan;95421.53;2033743;29;20448;-52
2023/11/09 03:36:18;;;;;;;5.57;2.60;;;;;;;-0.66;nan;95424.88;2041347;29;20055;-52
2023/11/09 03:37:20;;;;;;;4.57;2.20;;;;;;;-0.65;nan;95425.72;2042388;29;20054;-53
2023/11/09 03:38:21;;;;;;;5.13;2.10;;;;;;;-0.69;nan;95427.47;2042156;29;20057;-53
2023/11/09 03:39:24;;;;;;;5.25;2.03;;;;;;;-0.63;nan;95427.38;2041711;29;20404;-52
2023/11/09 03:40:25;;;;;;;4.32;2.47;;;;;;;-0.70;nan;95413.84;2033299;29;20104;-52
2023/11/09 03:41:26;;;;;;;5.00;2.60;;;;;;;-0.75;nan;95415.63;2034060;29;20056;-53
2023/11/09 03:42:27;;;;;;;4.65;2.45;;;;;;;-0.73;nan;95416.44;2041544;29;20063;-52
2023/11/09 03:43:29;;;;;;;4.88;2.40;;;;;;;-0.71;nan;95424.09;2033907;29;20051;-53
2023/11/09 03:44:35;;;;;;;4.90;2.45;;;;;;;-0.70;nan;95425.75;2032944;29;20064;-52
2023/11/09 03:45:36;;;;;;;4.97;2.28;;;;;;;-0.73;nan;95426.63;2033859;29;20047;-52
2023/11/09 03:46:38;;;;;;;4.20;2.53;;;;;;;-0.71;nan;95427.47;2033330;29;20063;-52
2023/11/09 03:47:40;;;;;;;3.50;1.98;;;;;;;-0.75;nan;95418.19;2033918;29;20075;-52
2023/11/09 03:48:41;;;;;;;4.38;2.50;;;;;;;-0.81;nan;95423.34;2042076;29;20051;-53
2023/11/09 03:49:42;;;;;;;4.43;2.17;;;;;;;-0.77;nan;95422.44;2042159;29;20044;-53
2023/11/09 03:50:43;;;;;;;4.68;2.47;;;;;;;-0.80;nan;95419.09;2042060;29;20064;-52
2023/11/09 03:51:44;;;;;;;5.45;2.40;;;;;;;-0.88;nan;95424.28;2018190;29;20045;-52
2023/11/09 03:52:45;;;;;;;4.80;2.40;;;;;;;-0.89;nan;95422.59;2018236;29;20433;-53
2023/11/09 03:53:47;;;;;;;5.40;2.70;;;;;;;-0.93;nan;95420.97;2041922;29;20051;-53
2023/11/09 03:54:48;;;;;;;5.88;2.63;;;;;;;-0.98;nan;95415.91;2041829;29;20055;-53
2023/11/09 03:55:49;;;;;;;5.07;2.67;;;;;;;-0.98;nan;95412.50;2042121;29;20044;-52
2023/11/09 03:56:50;;;;;;;3.78;2.33;;;;;;;-0.94;nan;95420.09;2042199;29;20369;-53
2023/11/09 03:57:51;;;;;;;4.05;2.38;;;;;;;-0.95;nan;95415.88;2042221;29;20055;-53
2023/11/09 03:58:52;;;;;;;6.20;2.33;;;;;;;-0.95;nan;95415.03;2041985;29;20047;-53
2023/11/09 03:59:53;;;;;;;6.18;2.28;;;;;;;-0.96;nan;95409.09;2042163;29;20047;-51
2023/11/09 04:00:54;;;;;;;4.63;2.35;;;;;;;-0.85;nan;95405.56;2041885;29;20058;-52
2023/11/09 04:01:56;;;;;;;5.35;2.28;;;;;;;-0.81;nan;95402.94;2041594;29;20459;-53
2023/11/09 04:02:57;;;;;;;4.30;2.22;;;;;;;-0.82;nan;95392.78;2042012;29;20055;-53
2023/11/09 04:03:58;;;;;;;3.67;2.20;;;;;;;-0.82;nan;95392.78;2041553;29;20051;-53
2023/11/09 04:04:59;;;;;;;5.00;2.20;;;;;;;-0.73;nan;95383.28;2042134;29;20369;-52
2023/11/09 04:06:00;;;;;;;3.72;2.40;;;;;;;-0.71;nan;95384.13;2041203;29;20051;-52
2023/11/09 04:07:01;;;;;;;5.05;2.50;;;;;;;-0.71;nan;95391.78;2042229;29;20400;-52
2023/11/09 04:08:03;;;;;;;6.00;2.65;;;;;;;-0.70;nan;95384.97;2041662;29;20055;-52
2023/11/09 04:09:05;;;;;;;6.43;2.30;;;;;;;-0.67;nan;95384.91;2040961;29;20052;-53
2023/11/09 04:10:06;;;;;;;3.72;2.08;;;;;;;-0.65;nan;95382.34;2041471;29;20056;-52
2023/11/09 04:11:08;;;;;;;6.18;2.47;;;;;;;-0.70;nan;95384.97;2042114;29;20036;-52
2023/11/09 04:12:09;;;;;;;5.97;2.83;;;;;;;-0.77;nan;95383.38;2041506;29;20052;-52
2023/11/09 04:13:10;;;;;;;3.83;2.20;;;;;;;-0.72;nan;95379.06;2042065;29;20067;-53
2023/11/09 04:14:11;;;;;;;5.32;2.20;;;;;;;-0.69;nan;95372.19;2041764;29;20059;-53
2023/11/09 04:15:12;;;;;;;6.07;2.13;;;;;;;-0.67;nan;95375.59;2041617;29;20064;-52
2023/11/09 04:16:13;;;;;;;4.05;2.30;;;;;;;-0.82;nan;95373.22;2042028;29;20044;-53
2023/11/09 04:17:14;;;;;;;4.38;2.17;;;;;;;-0.93;nan;95367.44;2041795;29;20055;-52
2023/11/09 04:18:15;;;;;;;7.60;2.60;;;;;;;-1.01;nan;95366.69;2042106;29;20051;-52
2023/11/09 04:19:19;;;;;;;4.35;2.15;;;;;;;-0.99;nan;95363.25;2041750;29;20055;-53
2023/11/09 04:20:21;;;;;;;5.65;2.42;;;;;;;-0.99;nan;95363.25;2042090;29;20058;-53
2023/11/09 04:21:22;;;;;;;5.50;2.42;;;;;;;-0.94;nan;95356.38;2041727;29;20480;-52
2023/11/09 04:22:23;;;;;;;6.15;2.42;;;;;;;-0.94;nan;95353.81;2042192;29;20059;-53
2023/11/09 04:23:24;;;;;;;4.45;2.35;;;;;;;-0.93;nan;95354.69;2041974;29;20392;-53
2023/11/09 04:24:25;;;;;;;6.18;2.53;;;;;;;-0.99;nan;95352.19;2041431;29;20063;-53
2023/11/09 04:25:26;;;;;;;4.63;1.77;;;;;;;-1.01;nan;95353.94;2041765;29;20063;-52
2023/11/09 04:26:27;;;;;;;4.63;2.25;;;;;;;-1.06;nan;95346.34;2041291;29;20059;-52
2023/11/09 04:27:29;;;;;;;5.28;2.70;;;;;;;-0.99;nan;95339.44;2041978;29;20066;-52
2023/11/09 04:28:32;;;;;;;4.07;2.10;;;;;;;-0.93;nan;95341.94;2042042;29;20048;-52
2023/11/09 04:29:34;;;;;;;4.25;2.28;;;;;;;-0.98;nan;95343.69;2041778;29;20040;-53
2023/11/09 04:30:36;;;;;;;5.25;2.45;;;;;;;-1.05;nan;95342.09;2041856;29;20039;-53
2023/11/09 04:31:41;;;;;;;5.57;2.63;;;;;;;-1.13;nan;95347.28;2041851;29;20052;-53
2023/11/09 04:32:43;;;;;;;4.25;2.17;;;;;;;-1.19;nan;95344.81;2041947;29;20380;-53
2023/11/09 04:33:44;;;;;;;7.00;2.25;;;;;;;-1.21;nan;95337.16;2041839;29;20058;-53
2023/11/09 04:34:46;;;;;;;4.55;2.10;;;;;;;-1.16;nan;95340.50;2032707;29;20115;-52
2023/11/09 04:35:47;;;;;;;4.28;1.70;;;;;;;-1.18;nan;95342.22;2033788;29;20548;-53
2023/11/09 04:36:50;;;;;;;3.67;2.10;;;;;;;-1.16;nan;95344.75;2041864;29;20056;-52
2023/11/09 04:37:54;;;;;;;5.25;2.50;;;;;;;-1.13;nan;95332.81;2041421;29;20512;-53
2023/11/09 04:38:57;;;;;;;5.00;2.30;;;;;;;-1.17;nan;95330.34;2041505;29;20056;-53
2023/11/09 04:39:58;;;;;;;4.03;2.22;;;;;;;-1.11;nan;95331.09;2041861;29;20133;-52
2023/11/09 04:41:03;;;;;;;5.53;2.15;;;;;;;-1.08;nan;95337.88;2041428;29;20064;-53
2023/11/09 04:42:04;;;;;;;5.13;2.15;;;;;;;-1.11;nan;95336.19;2041892;29;20059;-53
2023/11/09 04:43:06;;;;;;;5.05;1.88;;;;;;;-1.08;nan;95339.56;2041243;29;20066;-53
2023/11/09 04:44:08;;;;;;;4.25;2.38;;;;;;;-1.07;nan;95343.81;2041702;29;20427;-54
2023/11/09 04:45:12;;;;;;;3.17;1.95;;;;;;;-1.07;nan;95328.50;2041680;29;20488;-53
2023/11/09 04:46:17;;;;;;;4.35;2.20;;;;;;;-1.06;nan;95331.06;2041747;29;20060;-53
2023/11/09 04:47:25;;;;;;;5.43;2.00;;;;;;;-1.08;nan;95327.66;2041741;29;20404;-53
2023/11/09 04:48:31;;;;;;;5.88;2.30;;;;;;;-1.07;nan;95323.41;2041721;29;20060;-53
2023/11/09 04:49:32;;;;;;;5.28;2.10;;;;;;;-1.01;nan;95319.09;2041848;29;20040;-52
2023/11/09 04:50:33;;;;;;;6.90;2.40;;;;;;;-1.08;nan;95324.28;2042037;29;20472;-53
2023/11/09 04:51:35;;;;;;;4.20;2.17;;;;;;;-1.22;nan;95306.63;2041735;29;20047;-54
2023/11/09 04:52:44;;;;;;;4.03;2.03;;;;;;;-1.19;nan;95317.63;2041716;29;20404;-53
2023/11/09 04:53:47;;;;;;;4.88;2.50;;;;;;;-1.10;nan;95316.66;2041935;29;20051;-54
2023/11/09 04:54:57;;;;;;;3.42;2.10;;;;;;;-0.89;nan;95315.53;2041751;29;20048;-53
2023/11/09 04:56:04;;;;;;;6.13;2.30;;;;;;;-0.90;nan;95316.41;2042100;29;20125;-54
2023/11/09 04:58:44;;;;;;;4.25;2.13;;;;;;;-0.94;nan;95320.69;2041689;29;20052;-53